Terminal Aerodrome Forecast
Issued by NWS

Home | Current Version | Previous Version | Text Only | Print | Product List | Glossary On
Versions: 1 2 3 4 5 6 7 8 9 10 11 12 13 14 15 16 17 18 19 20 21 22 23 24 25 26 27 28 29 30
000
FTUS43 KLOT 020019 AAA
TAFMDW
TAF AMD
KMDW 020019Z 0200/0224 03014KT P6SM -SHRA OVC009
     FM020100 03012KT 5SM -SHRA VCTS OVC009CB
      TEMPO 0201/0202 4SM TSRA OVC008CB
     FM020200 02012KT 6SM -SHRA OVC007
     FM020400 03011KT 5SM BR OVC004
     FM020800 02009KT P6SM OVC008
     FM021200 03011KT P6SM OVC012
     FM021500 04011KT P6SM OVC025
     FM021800 04012KT P6SM BKN035 OVC050=

USA.gov is the U.S. government's official web portal to all federal, state and local government web resources and services.